sensor_id;sensor_type;location;lat;lon;timestamp;P1;durP1;ratioP1;P2;durP2;ratioP2
4980;SDS011;2507;50.392;7.482;2022-10-16T00:01:11;3.03;;;2.80;;
4980;SDS011;2507;50.392;7.482;2022-10-16T00:03:39;2.83;;;2.73;;
4980;SDS011;2507;50.392;7.482;2022-10-16T00:06:05;2.57;;;2.50;;
4980;SDS011;2507;50.392;7.482;2022-10-16T00:08:31;2.50;;;2.33;;
4980;SDS011;2507;50.392;7.482;2022-10-16T00:11:01;2.37;;;2.27;;
4980;SDS011;2507;50.392;7.482;2022-10-16T00:13:29;2.53;;;2.33;;
4980;SDS011;2507;50.392;7.482;2022-10-16T00:15:55;3.17;;;2.90;;
4980;SDS011;2507;50.392;7.482;2022-10-16T00:18:21;3.10;;;2.20;;
4980;SDS011;2507;50.392;7.482;2022-10-16T00:20:46;5.60;;;2.27;;
4980;SDS011;2507;50.392;7.482;2022-10-16T00:23:12;8.53;;;2.30;;
4980;SDS011;2507;50.392;7.482;2022-10-16T00:25:37;2.47;;;2.27;;
4980;SDS011;2507;50.392;7.482;2022-10-16T00:28:02;2.50;;;2.47;;
4980;SDS011;2507;50.392;7.482;2022-10-16T00:30:27;2.43;;;2.33;;
4980;SDS011;2507;50.392;7.482;2022-10-16T00:32:54;2.30;;;2.30;;
4980;SDS011;2507;50.392;7.482;2022-10-16T00:35:19;2.40;;;2.10;;
4980;SDS011;2507;50.392;7.482;2022-10-16T00:37:45;2.10;;;2.03;;
4980;SDS011;2507;50.392;7.482;2022-10-16T00:40:10;2.00;;;1.90;;
4980;SDS011;2507;50.392;7.482;2022-10-16T00:42:36;1.90;;;1.90;;
4980;SDS011;2507;50.392;7.482;2022-10-16T00:45:02;2.10;;;2.10;;
4980;SDS011;2507;50.392;7.482;2022-10-16T00:47:35;2.20;;;2.20;;
4980;SDS011;2507;50.392;7.482;2022-10-16T00:50:07;2.10;;;2.00;;
4980;SDS011;2507;50.392;7.482;2022-10-16T00:52:36;2.90;;;2.40;;
4980;SDS011;2507;50.392;7.482;2022-10-16T00:55:06;2.07;;;2.07;;
4980;SDS011;2507;50.392;7.482;2022-10-16T00:57:34;1.87;;;1.87;;
4980;SDS011;2507;50.392;7.482;2022-10-16T00:59:59;3.50;;;1.90;;
4980;SDS011;2507;50.392;7.482;2022-10-16T01:02:24;2.00;;;1.90;;
4980;SDS011;2507;50.392;7.482;2022-10-16T01:04:50;2.00;;;1.80;;
4980;SDS011;2507;50.392;7.482;2022-10-16T01:09:59;2.13;;;2.03;;
4980;SDS011;2507;50.392;7.482;2022-10-16T01:15:09;2.00;;;1.90;;
4980;SDS011;2507;50.392;7.482;2022-10-16T01:18:06;2.00;;;1.90;;
4980;SDS011;2507;50.392;7.482;2022-10-16T01:20:37;1.87;;;1.77;;
4980;SDS011;2507;50.392;7.482;2022-10-16T01:23:15;3.70;;;1.70;;
4980;SDS011;2507;50.392;7.482;2022-10-16T01:31:49;3.53;;;1.70;;
4980;SDS011;2507;50.392;7.482;2022-10-16T01:34:22;4.30;;;1.57;;
4980;SDS011;2507;50.392;7.482;2022-10-16T01:36:55;3.10;;;1.80;;
4980;SDS011;2507;50.392;7.482;2022-10-16T01:39:26;2.30;;;1.60;;
4980;SDS011;2507;50.392;7.482;2022-10-16T01:42:10;1.87;;;1.80;;
4980;SDS011;2507;50.392;7.482;2022-10-16T01:44:39;3.13;;;1.80;;
4980;SDS011;2507;50.392;7.482;2022-10-16T01:47:07;4.73;;;2.37;;
4980;SDS011;2507;50.392;7.482;2022-10-16T01:49:36;1.97;;;1.87;;
4980;SDS011;2507;50.392;7.482;2022-10-16T01:52:05;1.50;;;1.40;;
4980;SDS011;2507;50.392;7.482;2022-10-16T01:54:35;2.00;;;1.43;;
4980;SDS011;2507;50.392;7.482;2022-10-16T01:57:03;2.03;;;1.83;;
4980;SDS011;2507;50.392;7.482;2022-10-16T01:59:32;1.63;;;1.53;;
4980;SDS011;2507;50.392;7.482;2022-10-16T02:02:01;2.30;;;1.50;;
4980;SDS011;2507;50.392;7.482;2022-10-16T02:04:33;1.53;;;1.43;;
4980;SDS011;2507;50.392;7.482;2022-10-16T02:07:01;1.30;;;1.20;;
4980;SDS011;2507;50.392;7.482;2022-10-16T02:09:27;1.50;;;1.50;;
4980;SDS011;2507;50.392;7.482;2022-10-16T02:11:53;1.60;;;1.50;;
4980;SDS011;2507;50.392;7.482;2022-10-16T02:14:22;1.50;;;1.43;;
4980;SDS011;2507;50.392;7.482;2022-10-16T02:16:49;2.37;;;1.60;;
4980;SDS011;2507;50.392;7.482;2022-10-16T02:19:15;1.77;;;1.50;;
4980;SDS011;2507;50.392;7.482;2022-10-16T02:21:57;1.43;;;1.33;;
4980;SDS011;2507;50.392;7.482;2022-10-16T02:24:33;1.73;;;1.40;;
4980;SDS011;2507;50.392;7.482;2022-10-16T02:27:11;1.70;;;1.60;;
4980;SDS011;2507;50.392;7.482;2022-10-16T02:29:42;1.80;;;1.70;;
4980;SDS011;2507;50.392;7.482;2022-10-16T02:32:16;1.70;;;1.60;;
4980;SDS011;2507;50.392;7.482;2022-10-16T02:34:44;1.53;;;1.43;;
4980;SDS011;2507;50.392;7.482;2022-10-16T02:37:11;1.50;;;1.40;;
4980;SDS011;2507;50.392;7.482;2022-10-16T02:39:37;1.47;;;1.40;;
4980;SDS011;2507;50.392;7.482;2022-10-16T02:42:08;6.90;;;5.57;;
4980;SDS011;2507;50.392;7.482;2022-10-16T02:44:35;2.63;;;2.43;;
4980;SDS011;2507;50.392;7.482;2022-10-16T02:47:00;2.70;;;2.60;;
4980;SDS011;2507;50.392;7.482;2022-10-16T02:49:25;4.43;;;3.23;;
4980;SDS011;2507;50.392;7.482;2022-10-16T02:51:51;3.10;;;3.00;;
4980;SDS011;2507;50.392;7.482;2022-10-16T02:54:16;1.97;;;1.80;;
4980;SDS011;2507;50.392;7.482;2022-10-16T02:56:41;2.40;;;2.20;;
4980;SDS011;2507;50.392;7.482;2022-10-16T02:59:06;1.90;;;1.80;;
4980;SDS011;2507;50.392;7.482;2022-10-16T03:01:32;1.73;;;1.30;;
4980;SDS011;2507;50.392;7.482;2022-10-16T03:03:57;4.10;;;2.37;;
4980;SDS011;2507;50.392;7.482;2022-10-16T03:06:22;1.50;;;1.40;;
4980;SDS011;2507;50.392;7.482;2022-10-16T03:08:48;1.67;;;1.57;;
4980;SDS011;2507;50.392;7.482;2022-10-16T03:11:13;2.10;;;2.00;;
4980;SDS011;2507;50.392;7.482;2022-10-16T03:13:38;1.70;;;1.60;;
4980;SDS011;2507;50.392;7.482;2022-10-16T03:16:04;3.13;;;3.03;;
4980;SDS011;2507;50.392;7.482;2022-10-16T03:18:29;3.30;;;3.10;;
4980;SDS011;2507;50.392;7.482;2022-10-16T03:20:54;2.53;;;2.33;;
4980;SDS011;2507;50.392;7.482;2022-10-16T03:23:20;2.23;;;2.13;;
4980;SDS011;2507;50.392;7.482;2022-10-16T03:25:45;2.03;;;1.80;;
4980;SDS011;2507;50.392;7.482;2022-10-16T03:28:10;2.53;;;2.33;;
4980;SDS011;2507;50.392;7.482;2022-10-16T03:30:35;3.27;;;2.20;;
4980;SDS011;2507;50.392;7.482;2022-10-16T03:33:01;7.30;;;6.60;;
4980;SDS011;2507;50.392;7.482;2022-10-16T03:35:26;6.23;;;5.73;;
4980;SDS011;2507;50.392;7.482;2022-10-16T03:37:51;4.20;;;3.50;;
4980;SDS011;2507;50.392;7.482;2022-10-16T03:40:17;4.83;;;4.43;;
4980;SDS011;2507;50.392;7.482;2022-10-16T03:42:43;2.23;;;2.10;;
4980;SDS011;2507;50.392;7.482;2022-10-16T03:45:08;6.63;;;6.03;;
4980;SDS011;2507;50.392;7.482;2022-10-16T03:47:35;4.27;;;3.10;;
4980;SDS011;2507;50.392;7.482;2022-10-16T03:50:00;9.10;;;7.60;;
4980;SDS011;2507;50.392;7.482;2022-10-16T03:52:26;2.73;;;2.53;;
4980;SDS011;2507;50.392;7.482;2022-10-16T03:54:51;1.90;;;1.80;;
4980;SDS011;2507;50.392;7.482;2022-10-16T03:57:17;1.70;;;1.63;;
4980;SDS011;2507;50.392;7.482;2022-10-16T03:59:42;1.37;;;1.30;;
4980;SDS011;2507;50.392;7.482;2022-10-16T04:02:07;1.50;;;1.50;;
4980;SDS011;2507;50.392;7.482;2022-10-16T04:04:33;1.10;;;1.10;;
4980;SDS011;2507;50.392;7.482;2022-10-16T04:06:58;1.50;;;1.40;;
4980;SDS011;2507;50.392;7.482;2022-10-16T04:09:23;1.43;;;1.33;;
4980;SDS011;2507;50.392;7.482;2022-10-16T04:11:49;1.20;;;1.13;;
4980;SDS011;2507;50.392;7.482;2022-10-16T04:14:14;1.30;;;1.30;;
4980;SDS011;2507;50.392;7.482;2022-10-16T04:16:40;1.20;;;1.10;;
4980;SDS011;2507;50.392;7.482;2022-10-16T04:19:05;1.93;;;1.30;;
4980;SDS011;2507;50.392;7.482;2022-10-16T04:21:31;1.10;;;1.10;;
4980;SDS011;2507;50.392;7.482;2022-10-16T04:23:56;5.93;;;1.17;;
4980;SDS011;2507;50.392;7.482;2022-10-16T04:26:21;0.87;;;0.83;;
4980;SDS011;2507;50.392;7.482;2022-10-16T04:28:47;0.80;;;0.80;;
4980;SDS011;2507;50.392;7.482;2022-10-16T04:31:12;6.00;;;1.20;;
4980;SDS011;2507;50.392;7.482;2022-10-16T04:33:37;3.03;;;0.90;;
4980;SDS011;2507;50.392;7.482;2022-10-16T04:36:03;1.23;;;0.87;;
4980;SDS011;2507;50.392;7.482;2022-10-16T04:38:28;3.13;;;1.00;;
4980;SDS011;2507;50.392;7.482;2022-10-16T04:40:54;0.80;;;0.80;;
4980;SDS011;2507;50.392;7.482;2022-10-16T04:43:20;1.20;;;1.10;;
4980;SDS011;2507;50.392;7.482;2022-10-16T04:45:45;1.00;;;0.80;;
4980;SDS011;2507;50.392;7.482;2022-10-16T04:48:11;1.43;;;0.77;;
4980;SDS011;2507;50.392;7.482;2022-10-16T04:50:36;1.20;;;1.07;;
4980;SDS011;2507;50.392;7.482;2022-10-16T04:53:01;0.93;;;0.93;;
4980;SDS011;2507;50.392;7.482;2022-10-16T04:55:27;2.20;;;0.77;;
4980;SDS011;2507;50.392;7.482;2022-10-16T04:57:52;0.67;;;0.67;;
4980;SDS011;2507;50.392;7.482;2022-10-16T05:00:17;1.33;;;0.90;;
4980;SDS011;2507;50.392;7.482;2022-10-16T05:02:42;1.10;;;1.10;;
4980;SDS011;2507;50.392;7.482;2022-10-16T05:05:08;0.90;;;0.90;;
4980;SDS011;2507;50.392;7.482;2022-10-16T05:07:33;1.13;;;0.80;;
4980;SDS011;2507;50.392;7.482;2022-10-16T05:09:58;2.63;;;1.10;;
4980;SDS011;2507;50.392;7.482;2022-10-16T05:12:24;0.93;;;0.93;;
4980;SDS011;2507;50.392;7.482;2022-10-16T05:14:49;1.00;;;1.00;;
4980;SDS011;2507;50.392;7.482;2022-10-16T05:17:14;1.47;;;0.90;;
4980;SDS011;2507;50.392;7.482;2022-10-16T05:19:40;1.37;;;0.80;;
4980;SDS011;2507;50.392;7.482;2022-10-16T05:22:05;1.23;;;0.80;;
4980;SDS011;2507;50.392;7.482;2022-10-16T05:24:30;1.30;;;1.00;;
4980;SDS011;2507;50.392;7.482;2022-10-16T05:26:56;0.90;;;0.90;;
4980;SDS011;2507;50.392;7.482;2022-10-16T05:29:21;1.00;;;1.00;;
4980;SDS011;2507;50.392;7.482;2022-10-16T05:31:49;2.20;;;0.93;;
4980;SDS011;2507;50.392;7.482;2022-10-16T05:34:15;3.33;;;1.10;;
4980;SDS011;2507;50.392;7.482;2022-10-16T05:36:40;1.80;;;1.00;;
4980;SDS011;2507;50.392;7.482;2022-10-16T05:39:05;3.43;;;0.97;;
4980;SDS011;2507;50.392;7.482;2022-10-16T05:41:31;1.23;;;1.13;;
4980;SDS011;2507;50.392;7.482;2022-10-16T05:43:56;2.30;;;1.80;;
4980;SDS011;2507;50.392;7.482;2022-10-16T05:46:21;1.07;;;1.07;;
4980;SDS011;2507;50.392;7.482;2022-10-16T05:48:47;1.90;;;1.47;;
4980;SDS011;2507;50.392;7.482;2022-10-16T05:51:13;1.30;;;1.20;;
4980;SDS011;2507;50.392;7.482;2022-10-16T05:53:39;5.67;;;1.53;;
4980;SDS011;2507;50.392;7.482;2022-10-16T05:56:06;2.77;;;1.73;;
4980;SDS011;2507;50.392;7.482;2022-10-16T05:58:35;2.40;;;1.57;;
4980;SDS011;2507;50.392;7.482;2022-10-16T06:03:28;1.27;;;1.17;;
4980;SDS011;2507;50.392;7.482;2022-10-16T06:05:53;1.57;;;1.30;;
4980;SDS011;2507;50.392;7.482;2022-10-16T06:08:20;1.50;;;1.50;;
4980;SDS011;2507;50.392;7.482;2022-10-16T06:10:46;1.20;;;1.20;;
4980;SDS011;2507;50.392;7.482;2022-10-16T06:13:12;1.10;;;1.10;;
4980;SDS011;2507;50.392;7.482;2022-10-16T06:15:39;0.90;;;0.73;;
4980;SDS011;2507;50.392;7.482;2022-10-16T06:18:06;1.40;;;1.30;;
4980;SDS011;2507;50.392;7.482;2022-10-16T06:20:33;2.50;;;2.10;;
4980;SDS011;2507;50.392;7.482;2022-10-16T06:22:58;5.57;;;2.40;;
4980;SDS011;2507;50.392;7.482;2022-10-16T06:25:24;1.90;;;1.90;;
4980;SDS011;2507;50.392;7.482;2022-10-16T06:27:49;1.90;;;1.80;;
4980;SDS011;2507;50.392;7.482;2022-10-16T06:30:14;1.23;;;1.13;;
4980;SDS011;2507;50.392;7.482;2022-10-16T06:32:39;4.87;;;1.30;;
4980;SDS011;2507;50.392;7.482;2022-10-16T06:35:05;1.30;;;1.30;;
4980;SDS011;2507;50.392;7.482;2022-10-16T06:37:30;2.10;;;1.50;;
4980;SDS011;2507;50.392;7.482;2022-10-16T06:39:55;1.60;;;1.50;;
4980;SDS011;2507;50.392;7.482;2022-10-16T06:42:21;1.97;;;1.87;;
4980;SDS011;2507;50.392;7.482;2022-10-16T06:44:46;2.67;;;2.27;;
4980;SDS011;2507;50.392;7.482;2022-10-16T06:47:11;2.00;;;1.90;;
4980;SDS011;2507;50.392;7.482;2022-10-16T06:49:36;2.43;;;2.27;;
4980;SDS011;2507;50.392;7.482;2022-10-16T06:52:02;3.43;;;1.73;;
4980;SDS011;2507;50.392;7.482;2022-10-16T06:54:28;1.60;;;1.50;;
4980;SDS011;2507;50.392;7.482;2022-10-16T06:56:53;4.53;;;1.70;;
4980;SDS011;2507;50.392;7.482;2022-10-16T06:59:19;1.50;;;1.50;;
4980;SDS011;2507;50.392;7.482;2022-10-16T07:01:48;2.30;;;2.20;;
4980;SDS011;2507;50.392;7.482;2022-10-16T07:04:13;1.37;;;1.30;;
4980;SDS011;2507;50.392;7.482;2022-10-16T07:06:38;1.53;;;1.43;;
4980;SDS011;2507;50.392;7.482;2022-10-16T07:09:05;4.07;;;1.40;;
4980;SDS011;2507;50.392;7.482;2022-10-16T07:11:32;2.30;;;2.13;;
4980;SDS011;2507;50.392;7.482;2022-10-16T07:13:57;5.50;;;2.00;;
4980;SDS011;2507;50.392;7.482;2022-10-16T07:16:24;2.27;;;2.17;;
4980;SDS011;2507;50.392;7.482;2022-10-16T07:18:53;6.73;;;3.70;;
4980;SDS011;2507;50.392;7.482;2022-10-16T07:21:25;4.00;;;3.60;;
4980;SDS011;2507;50.392;7.482;2022-10-16T07:23:54;2.07;;;1.90;;
4980;SDS011;2507;50.392;7.482;2022-10-16T07:26:21;2.00;;;1.90;;
4980;SDS011;2507;50.392;7.482;2022-10-16T07:28:47;1.93;;;1.13;;
4980;SDS011;2507;50.392;7.482;2022-10-16T07:31:15;1.00;;;1.00;;
4980;SDS011;2507;50.392;7.482;2022-10-16T07:33:42;0.70;;;0.70;;
4980;SDS011;2507;50.392;7.482;2022-10-16T07:36:09;1.13;;;0.90;;
4980;SDS011;2507;50.392;7.482;2022-10-16T07:38:35;0.90;;;0.90;;
4980;SDS011;2507;50.392;7.482;2022-10-16T07:41:04;1.53;;;0.80;;
4980;SDS011;2507;50.392;7.482;2022-10-16T07:43:32;2.40;;;1.00;;
4980;SDS011;2507;50.392;7.482;2022-10-16T07:45:58;0.77;;;0.77;;
4980;SDS011;2507;50.392;7.482;2022-10-16T07:48:28;1.10;;;0.60;;
4980;SDS011;2507;50.392;7.482;2022-10-16T07:51:01;0.60;;;0.60;;
4980;SDS011;2507;50.392;7.482;2022-10-16T07:53:28;0.70;;;0.70;;
4980;SDS011;2507;50.392;7.482;2022-10-16T07:56:00;2.20;;;0.97;;
4980;SDS011;2507;50.392;7.482;2022-10-16T07:58:27;0.70;;;0.60;;
4980;SDS011;2507;50.392;7.482;2022-10-16T08:00:54;2.87;;;0.70;;
4980;SDS011;2507;50.392;7.482;2022-10-16T08:03:19;1.33;;;1.10;;
4980;SDS011;2507;50.392;7.482;2022-10-16T08:05:45;1.23;;;0.90;;
4980;SDS011;2507;50.392;7.482;2022-10-16T08:08:12;0.93;;;0.93;;
4980;SDS011;2507;50.392;7.482;2022-10-16T08:10:39;1.00;;;1.00;;
4980;SDS011;2507;50.392;7.482;2022-10-16T08:13:04;0.93;;;0.93;;
4980;SDS011;2507;50.392;7.482;2022-10-16T08:15:30;1.10;;;0.80;;
4980;SDS011;2507;50.392;7.482;2022-10-16T08:17:56;1.97;;;0.90;;
4980;SDS011;2507;50.392;7.482;2022-10-16T08:20:22;1.93;;;0.90;;
4980;SDS011;2507;50.392;7.482;2022-10-16T08:22:48;1.27;;;0.60;;
4980;SDS011;2507;50.392;7.482;2022-10-16T08:25:13;1.23;;;0.80;;
4980;SDS011;2507;50.392;7.482;2022-10-16T08:27:38;2.13;;;0.93;;
4980;SDS011;2507;50.392;7.482;2022-10-16T08:30:04;1.90;;;0.50;;
4980;SDS011;2507;50.392;7.482;2022-10-16T08:32:29;0.60;;;0.60;;
4980;SDS011;2507;50.392;7.482;2022-10-16T08:34:54;0.60;;;0.60;;
4980;SDS011;2507;50.392;7.482;2022-10-16T08:37:20;1.27;;;0.60;;
4980;SDS011;2507;50.392;7.482;2022-10-16T08:39:45;0.97;;;0.60;;
4980;SDS011;2507;50.392;7.482;2022-10-16T08:42:16;0.80;;;0.70;;
4980;SDS011;2507;50.392;7.482;2022-10-16T08:45:02;1.10;;;1.00;;
4980;SDS011;2507;50.392;7.482;2022-10-16T08:50:24;2.37;;;0.90;;
4980;SDS011;2507;50.392;7.482;2022-10-16T08:52:53;1.00;;;0.80;;
4980;SDS011;2507;50.392;7.482;2022-10-16T08:55:27;1.17;;;0.90;;
4980;SDS011;2507;50.392;7.482;2022-10-16T08:57:57;2.10;;;0.80;;
4980;SDS011;2507;50.392;7.482;2022-10-16T09:00:22;0.87;;;0.80;;
4980;SDS011;2507;50.392;7.482;2022-10-16T09:02:50;0.87;;;0.53;;
4980;SDS011;2507;50.392;7.482;2022-10-16T09:05:41;1.70;;;0.70;;
4980;SDS011;2507;50.392;7.482;2022-10-16T09:08:25;6.97;;;4.73;;
4980;SDS011;2507;50.392;7.482;2022-10-16T09:10:56;16.20;;;13.30;;
4980;SDS011;2507;50.392;7.482;2022-10-16T09:13:31;7.90;;;5.83;;
4980;SDS011;2507;50.392;7.482;2022-10-16T09:19:03;1.20;;;1.10;;
4980;SDS011;2507;50.392;7.482;2022-10-16T09:21:38;1.37;;;0.90;;
4980;SDS011;2507;50.392;7.482;2022-10-16T09:24:26;1.43;;;1.20;;
4980;SDS011;2507;50.392;7.482;2022-10-16T09:26:51;0.60;;;0.60;;
4980;SDS011;2507;50.392;7.482;2022-10-16T09:29:17;0.80;;;0.60;;
4980;SDS011;2507;50.392;7.482;2022-10-16T09:31:45;0.70;;;0.70;;
4980;SDS011;2507;50.392;7.482;2022-10-16T09:34:24;1.23;;;0.80;;
4980;SDS011;2507;50.392;7.482;2022-10-16T09:36:59;4.10;;;1.07;;
4980;SDS011;2507;50.392;7.482;2022-10-16T09:39:28;1.20;;;1.07;;
4980;SDS011;2507;50.392;7.482;2022-10-16T09:41:53;2.70;;;0.67;;
4980;SDS011;2507;50.392;7.482;2022-10-16T09:44:22;1.30;;;1.20;;
4980;SDS011;2507;50.392;7.482;2022-10-16T09:47:01;1.00;;;0.60;;
4980;SDS011;2507;50.392;7.482;2022-10-16T09:49:31;1.70;;;0.87;;
4980;SDS011;2507;50.392;7.482;2022-10-16T09:52:09;0.53;;;0.43;;
4980;SDS011;2507;50.392;7.482;2022-10-16T09:54:37;0.90;;;0.50;;
4980;SDS011;2507;50.392;7.482;2022-10-16T09:57:13;0.60;;;0.60;;
4980;SDS011;2507;50.392;7.482;2022-10-16T09:59:45;0.60;;;0.60;;
4980;SDS011;2507;50.392;7.482;2022-10-16T10:02:12;0.80;;;0.70;;
4980;SDS011;2507;50.392;7.482;2022-10-16T10:04:50;0.80;;;0.80;;
4980;SDS011;2507;50.392;7.482;2022-10-16T10:07:32;0.80;;;0.80;;
4980;SDS011;2507;50.392;7.482;2022-10-16T10:10:01;1.20;;;0.80;;
4980;SDS011;2507;50.392;7.482;2022-10-16T10:12:32;1.00;;;0.70;;
4980;SDS011;2507;50.392;7.482;2022-10-16T10:15:04;0.80;;;0.80;;
4980;SDS011;2507;50.392;7.482;2022-10-16T10:17:32;1.60;;;0.70;;
4980;SDS011;2507;50.392;7.482;2022-10-16T10:20:01;1.10;;;1.10;;
4980;SDS011;2507;50.392;7.482;2022-10-16T10:22:46;1.03;;;1.00;;
4980;SDS011;2507;50.392;7.482;2022-10-16T10:27:42;0.63;;;0.63;;
4980;SDS011;2507;50.392;7.482;2022-10-16T10:39:15;1.70;;;0.50;;
4980;SDS011;2507;50.392;7.482;2022-10-16T10:41:52;0.60;;;0.60;;
4980;SDS011;2507;50.392;7.482;2022-10-16T10:47:25;1.17;;;1.17;;
4980;SDS011;2507;50.392;7.482;2022-10-16T10:55:53;1.77;;;1.13;;
4980;SDS011;2507;50.392;7.482;2022-10-16T11:01:15;1.33;;;0.80;;
4980;SDS011;2507;50.392;7.482;2022-10-16T11:04:10;1.20;;;1.10;;
4980;SDS011;2507;50.392;7.482;2022-10-16T11:06:46;0.70;;;0.70;;
4980;SDS011;2507;50.392;7.482;2022-10-16T11:09:16;2.23;;;0.60;;
4980;SDS011;2507;50.392;7.482;2022-10-16T11:11:56;1.20;;;1.20;;
4980;SDS011;2507;50.392;7.482;2022-10-16T11:14:30;1.03;;;0.60;;
4980;SDS011;2507;50.392;7.482;2022-10-16T11:17:04;0.80;;;0.80;;
4980;SDS011;2507;50.392;7.482;2022-10-16T11:25:26;3.17;;;0.90;;
4980;SDS011;2507;50.392;7.482;2022-10-16T11:30:27;0.70;;;0.70;;
4980;SDS011;2507;50.392;7.482;2022-10-16T11:38:29;0.70;;;0.70;;
4980;SDS011;2507;50.392;7.482;2022-10-16T11:40:56;0.67;;;0.60;;
4980;SDS011;2507;50.392;7.482;2022-10-16T11:43:31;0.97;;;0.77;;
4980;SDS011;2507;50.392;7.482;2022-10-16T11:46:04;0.93;;;0.50;;
4980;SDS011;2507;50.392;7.482;2022-10-16T11:48:48;2.10;;;0.90;;
4980;SDS011;2507;50.392;7.482;2022-10-16T11:51:29;1.10;;;1.10;;
4980;SDS011;2507;50.392;7.482;2022-10-16T11:56:46;0.50;;;0.50;;
4980;SDS011;2507;50.392;7.482;2022-10-16T12:02:39;2.47;;;0.67;;
4980;SDS011;2507;50.392;7.482;2022-10-16T12:07:36;1.03;;;0.60;;
4980;SDS011;2507;50.392;7.482;2022-10-16T12:10:26;1.60;;;0.97;;
4980;SDS011;2507;50.392;7.482;2022-10-16T12:12:54;1.57;;;0.90;;
4980;SDS011;2507;50.392;7.482;2022-10-16T12:15:31;0.80;;;0.73;;
4980;SDS011;2507;50.392;7.482;2022-10-16T12:17:58;0.73;;;0.73;;
4980;SDS011;2507;50.392;7.482;2022-10-16T12:20:32;1.57;;;0.60;;
4980;SDS011;2507;50.392;7.482;2022-10-16T12:23:02;1.33;;;0.60;;
4980;SDS011;2507;50.392;7.482;2022-10-16T12:25:30;0.60;;;0.50;;
4980;SDS011;2507;50.392;7.482;2022-10-16T12:30:26;0.50;;;0.40;;
4980;SDS011;2507;50.392;7.482;2022-10-16T12:32:56;5.63;;;3.47;;
4980;SDS011;2507;50.392;7.482;2022-10-16T12:35:30;2.60;;;1.27;;
4980;SDS011;2507;50.392;7.482;2022-10-16T12:38:14;1.33;;;1.23;;
4980;SDS011;2507;50.392;7.482;2022-10-16T12:40:43;30.60;;;15.70;;
4980;SDS011;2507;50.392;7.482;2022-10-16T12:43:23;1.90;;;1.77;;
4980;SDS011;2507;50.392;7.482;2022-10-16T12:45:59;1.13;;;1.10;;
4980;SDS011;2507;50.392;7.482;2022-10-16T12:48:29;0.80;;;0.80;;
4980;SDS011;2507;50.392;7.482;2022-10-16T12:50:55;0.80;;;0.80;;
4980;SDS011;2507;50.392;7.482;2022-10-16T12:53:21;0.57;;;0.57;;
4980;SDS011;2507;50.392;7.482;2022-10-16T12:55:54;0.60;;;0.60;;
4980;SDS011;2507;50.392;7.482;2022-10-16T13:01:09;0.90;;;0.50;;
4980;SDS011;2507;50.392;7.482;2022-10-16T13:08:48;0.60;;;0.60;;
4980;SDS011;2507;50.392;7.482;2022-10-16T13:20:17;0.80;;;0.80;;
4980;SDS011;2507;50.392;7.482;2022-10-16T13:23:06;0.73;;;0.73;;
4980;SDS011;2507;50.392;7.482;2022-10-16T13:25:44;0.60;;;0.50;;
4980;SDS011;2507;50.392;7.482;2022-10-16T13:28:21;2.60;;;0.73;;
4980;SDS011;2507;50.392;7.482;2022-10-16T13:30:52;0.73;;;0.73;;
4980;SDS011;2507;50.392;7.482;2022-10-16T13:36:05;0.80;;;0.80;;
4980;SDS011;2507;50.392;7.482;2022-10-16T13:38:32;0.97;;;0.97;;
4980;SDS011;2507;50.392;7.482;2022-10-16T13:41:03;0.70;;;0.70;;
4980;SDS011;2507;50.392;7.482;2022-10-16T13:43:43;1.80;;;0.50;;
4980;SDS011;2507;50.392;7.482;2022-10-16T13:46:15;0.70;;;0.70;;
4980;SDS011;2507;50.392;7.482;2022-10-16T13:48:42;0.83;;;0.83;;
4980;SDS011;2507;50.392;7.482;2022-10-16T13:51:15;1.43;;;0.70;;
4980;SDS011;2507;50.392;7.482;2022-10-16T13:53:42;1.30;;;0.57;;
4980;SDS011;2507;50.392;7.482;2022-10-16T13:56:13;0.60;;;0.60;;
4980;SDS011;2507;50.392;7.482;2022-10-16T13:58:40;0.90;;;0.90;;
4980;SDS011;2507;50.392;7.482;2022-10-16T14:01:16;0.60;;;0.60;;
4980;SDS011;2507;50.392;7.482;2022-10-16T14:03:45;0.60;;;0.60;;
4980;SDS011;2507;50.392;7.482;2022-10-16T14:06:15;0.50;;;0.40;;
4980;SDS011;2507;50.392;7.482;2022-10-16T14:08:44;1.90;;;0.80;;
4980;SDS011;2507;50.392;7.482;2022-10-16T14:11:13;0.70;;;0.70;;
4980;SDS011;2507;50.392;7.482;2022-10-16T14:13:47;0.80;;;0.80;;
4980;SDS011;2507;50.392;7.482;2022-10-16T14:16:17;1.17;;;1.07;;
4980;SDS011;2507;50.392;7.482;2022-10-16T14:18:45;0.80;;;0.80;;
4980;SDS011;2507;50.392;7.482;2022-10-16T14:21:21;0.60;;;0.60;;
4980;SDS011;2507;50.392;7.482;2022-10-16T14:23:46;1.27;;;0.60;;
4980;SDS011;2507;50.392;7.482;2022-10-16T14:26:12;0.50;;;0.50;;
4980;SDS011;2507;50.392;7.482;2022-10-16T14:28:40;0.90;;;0.50;;
4980;SDS011;2507;50.392;7.482;2022-10-16T14:33:44;0.70;;;0.70;;
4980;SDS011;2507;50.392;7.482;2022-10-16T14:36:11;0.60;;;0.60;;
4980;SDS011;2507;50.392;7.482;2022-10-16T14:38:39;0.80;;;0.50;;
4980;SDS011;2507;50.392;7.482;2022-10-16T14:41:07;0.60;;;0.60;;
4980;SDS011;2507;50.392;7.482;2022-10-16T14:43:34;1.00;;;1.00;;
4980;SDS011;2507;50.392;7.482;2022-10-16T14:46:02;1.60;;;0.73;;
4980;SDS011;2507;50.392;7.482;2022-10-16T14:48:31;1.00;;;0.90;;
4980;SDS011;2507;50.392;7.482;2022-10-16T14:50:57;1.00;;;1.00;;
4980;SDS011;2507;50.392;7.482;2022-10-16T14:53:22;1.13;;;1.13;;
4980;SDS011;2507;50.392;7.482;2022-10-16T14:55:48;2.70;;;0.87;;
4980;SDS011;2507;50.392;7.482;2022-10-16T14:58:14;0.93;;;0.93;;
4980;SDS011;2507;50.392;7.482;2022-10-16T15:00:48;1.57;;;1.10;;
4980;SDS011;2507;50.392;7.482;2022-10-16T15:03:14;1.40;;;0.70;;
4980;SDS011;2507;50.392;7.482;2022-10-16T15:05:39;1.50;;;1.40;;
4980;SDS011;2507;50.392;7.482;2022-10-16T15:08:05;1.77;;;1.67;;
4980;SDS011;2507;50.392;7.482;2022-10-16T15:10:30;1.53;;;1.10;;
4980;SDS011;2507;50.392;7.482;2022-10-16T15:12:57;2.13;;;2.03;;
4980;SDS011;2507;50.392;7.482;2022-10-16T15:17:49;2.53;;;2.33;;
4980;SDS011;2507;50.392;7.482;2022-10-16T15:20:17;1.73;;;1.63;;
4980;SDS011;2507;50.392;7.482;2022-10-16T15:22:42;1.43;;;1.37;;
4980;SDS011;2507;50.392;7.482;2022-10-16T15:25:30;1.00;;;1.00;;
4980;SDS011;2507;50.392;7.482;2022-10-16T15:27:58;1.53;;;1.53;;
4980;SDS011;2507;50.392;7.482;2022-10-16T15:30:25;1.47;;;1.37;;
4980;SDS011;2507;50.392;7.482;2022-10-16T15:32:51;2.23;;;1.73;;
4980;SDS011;2507;50.392;7.482;2022-10-16T15:35:16;3.00;;;1.90;;
4980;SDS011;2507;50.392;7.482;2022-10-16T15:37:41;3.53;;;1.90;;
4980;SDS011;2507;50.392;7.482;2022-10-16T15:40:08;2.97;;;2.77;;
4980;SDS011;2507;50.392;7.482;2022-10-16T15:42:35;10.77;;;8.97;;
4980;SDS011;2507;50.392;7.482;2022-10-16T15:45:00;5.63;;;5.07;;
4980;SDS011;2507;50.392;7.482;2022-10-16T15:47:26;4.80;;;4.40;;
4980;SDS011;2507;50.392;7.482;2022-10-16T15:49:51;6.70;;;6.00;;
4980;SDS011;2507;50.392;7.482;2022-10-16T15:52:16;5.27;;;4.77;;
4980;SDS011;2507;50.392;7.482;2022-10-16T15:54:41;3.70;;;3.30;;
4980;SDS011;2507;50.392;7.482;2022-10-16T15:57:07;2.67;;;2.57;;
4980;SDS011;2507;50.392;7.482;2022-10-16T15:59:32;3.57;;;3.37;;
4980;SDS011;2507;50.392;7.482;2022-10-16T16:01:57;3.70;;;3.40;;
4980;SDS011;2507;50.392;7.482;2022-10-16T16:04:22;11.00;;;7.90;;
4980;SDS011;2507;50.392;7.482;2022-10-16T16:06:48;13.27;;;8.97;;
4980;SDS011;2507;50.392;7.482;2022-10-16T16:09:13;12.50;;;8.57;;
4980;SDS011;2507;50.392;7.482;2022-10-16T16:11:39;9.10;;;7.50;;
4980;SDS011;2507;50.392;7.482;2022-10-16T16:14:07;10.83;;;7.77;;
4980;SDS011;2507;50.392;7.482;2022-10-16T16:16:36;7.83;;;7.00;;
4980;SDS011;2507;50.392;7.482;2022-10-16T16:19:03;15.27;;;10.23;;
4980;SDS011;2507;50.392;7.482;2022-10-16T16:21:29;6.10;;;5.50;;
4980;SDS011;2507;50.392;7.482;2022-10-16T16:23:55;5.83;;;5.30;;
4980;SDS011;2507;50.392;7.482;2022-10-16T16:28:54;6.47;;;3.90;;
4980;SDS011;2507;50.392;7.482;2022-10-16T16:31:23;4.00;;;3.80;;
4980;SDS011;2507;50.392;7.482;2022-10-16T16:33:50;2.67;;;2.47;;
4980;SDS011;2507;50.392;7.482;2022-10-16T16:36:16;3.43;;;3.20;;
4980;SDS011;2507;50.392;7.482;2022-10-16T16:38:43;4.57;;;3.33;;
4980;SDS011;2507;50.392;7.482;2022-10-16T16:41:16;6.30;;;5.80;;
4980;SDS011;2507;50.392;7.482;2022-10-16T16:43:43;7.67;;;6.97;;
4980;SDS011;2507;50.392;7.482;2022-10-16T16:46:09;8.43;;;7.60;;
4980;SDS011;2507;50.392;7.482;2022-10-16T16:48:35;6.70;;;6.10;;
4980;SDS011;2507;50.392;7.482;2022-10-16T16:51:04;8.67;;;7.77;;
4980;SDS011;2507;50.392;7.482;2022-10-16T16:53:30;17.60;;;13.47;;
4980;SDS011;2507;50.392;7.482;2022-10-16T16:56:00;5.77;;;5.33;;
4980;SDS011;2507;50.392;7.482;2022-10-16T16:58:26;9.10;;;8.30;;